sensor_id;sensor_type;location;lat;lon;timestamp;temperature;humidity
75786;DHT22;64402;44.708;37.644;2023-03-20T00:02:09;9.98;79.49
75786;DHT22;64402;44.708;37.644;2023-03-20T00:04:37;9.93;79.69
75786;DHT22;64402;44.708;37.644;2023-03-20T00:07:06;9.94;79.57
75786;DHT22;64402;44.708;37.644;2023-03-20T00:09:39;9.98;79.62
75786;DHT22;64402;44.708;37.644;2023-03-20T00:12:13;9.99;79.37
75786;DHT22;64402;44.708;37.644;2023-03-20T00:14:41;9.99;79.51
75786;DHT22;64402;44.708;37.644;2023-03-20T00:17:17;9.99;79.54
75786;DHT22;64402;44.708;37.644;2023-03-20T00:19:46;9.99;79.53
75786;DHT22;64402;44.708;37.644;2023-03-20T00:22:14;10.00;79.46
75786;DHT22;64402;44.708;37.644;2023-03-20T00:24:41;9.99;79.59
75786;DHT22;64402;44.708;37.644;2023-03-20T00:27:14;9.97;79.53
75786;DHT22;64402;44.708;37.644;2023-03-20T00:29:42;9.96;79.38
75786;DHT22;64402;44.708;37.644;2023-03-20T04:57:06;9.89;81.51
75786;DHT22;64402;44.708;37.644;2023-03-20T05:00:54;9.96;81.25
75786;DHT22;64402;44.708;37.644;2023-03-20T05:04:43;9.92;81.02
75786;DHT22;64402;44.708;37.644;2023-03-20T05:08:32;10.03;81.04
75786;DHT22;64402;44.708;37.644;2023-03-20T05:12:21;10.05;80.58
75786;DHT22;64402;44.708;37.644;2023-03-20T05:16:10;10.12;79.98
75786;DHT22;64402;44.708;37.644;2023-03-20T05:20:00;10.04;80.18
75786;DHT22;64402;44.708;37.644;2023-03-20T05:23:50;9.88;80.07
75786;DHT22;64402;44.708;37.644;2023-03-20T05:27:38;9.68;81.08
75786;DHT22;64402;44.708;37.644;2023-03-20T05:31:27;9.54;81.23
75786;DHT22;64402;44.708;37.644;2023-03-20T05:35:17;9.47;82.39
75786;DHT22;64402;44.708;37.644;2023-03-20T05:39:06;9.61;81.77
75786;DHT22;64402;44.708;37.644;2023-03-20T13:19:59;11.67;71.69
75786;DHT22;64402;44.708;37.644;2023-03-20T13:27:48;11.84;70.90
75786;DHT22;64402;44.708;37.644;2023-03-20T13:30:47;11.82;71.09
75786;DHT22;64402;44.708;37.644;2023-03-20T13:36:38;11.94;70.95
75786;DHT22;64402;44.708;37.644;2023-03-20T13:38:48;11.92;71.00
75786;DHT22;64402;44.708;37.644;2023-03-20T13:41:16;11.89;70.74
75786;DHT22;64402;44.708;37.644;2023-03-20T13:43:47;11.94;70.74
75786;DHT22;64402;44.708;37.644;2023-03-20T13:46:17;11.96;70.87
75786;DHT22;64402;44.708;37.644;2023-03-20T13:48:45;11.91;70.87
75786;DHT22;64402;44.708;37.644;2023-03-20T14:05:17;11.74;70.88
75786;DHT22;64402;44.708;37.644;2023-03-20T14:07:46;11.63;70.82
75786;DHT22;64402;44.708;37.644;2023-03-20T14:13:16;11.31;71.50
75786;DHT22;64402;44.708;37.644;2023-03-20T14:15:54;11.13;70.69
75786;DHT22;64402;44.708;37.644;2023-03-20T14:18:24;10.88;72.41
75786;DHT22;64402;44.708;37.644;2023-03-20T14:21:08;10.65;72.48
75786;DHT22;64402;44.708;37.644;2023-03-20T14:23:43;10.48;73.13
75786;DHT22;64402;44.708;37.644;2023-03-20T14:26:19;10.34;74.25
75786;DHT22;64402;44.708;37.644;2023-03-20T14:29:01;10.27;74.17
75786;DHT22;64402;44.708;37.644;2023-03-20T14:31:32;10.26;74.73
75786;DHT22;64402;44.708;37.644;2023-03-20T14:36:57;10.03;74.64
75786;DHT22;64402;44.708;37.644;2023-03-20T14:39:33;9.96;75.56
75786;DHT22;64402;44.708;37.644;2023-03-20T14:53:23;10.12;75.10
75786;DHT22;64402;44.708;37.644;2023-03-20T14:55:57;10.08;74.98
75786;DHT22;64402;44.708;37.644;2023-03-20T15:06:58;10.09;75.40
75786;DHT22;64402;44.708;37.644;2023-03-20T15:09:26;10.12;75.38
75786;DHT22;64402;44.708;37.644;2023-03-20T15:11:55;10.10;75.11
75786;DHT22;64402;44.708;37.644;2023-03-20T15:14:33;10.01;75.04
75786;DHT22;64402;44.708;37.644;2023-03-20T15:17:02;9.78;75.84
75786;DHT22;64402;44.708;37.644;2023-03-20T15:19:29;9.52;76.65
75786;DHT22;64402;44.708;37.644;2023-03-20T15:21:56;9.42;77.11
75786;DHT22;64402;44.708;37.644;2023-03-20T15:24:27;9.45;77.56
75786;DHT22;64402;44.708;37.644;2023-03-20T15:26:56;9.51;77.20
75786;DHT22;64402;44.708;37.644;2023-03-20T15:29:24;9.55;77.30
75786;DHT22;64402;44.708;37.644;2023-03-20T15:31:54;9.53;77.24
75786;DHT22;64402;44.708;37.644;2023-03-20T15:34:25;9.50;77.31
75786;DHT22;64402;44.708;37.644;2023-03-20T15:36:54;9.51;77.54
75786;DHT22;64402;44.708;37.644;2023-03-20T15:39:27;9.55;77.44
75786;DHT22;64402;44.708;37.644;2023-03-20T15:42:02;9.53;77.46
75786;DHT22;64402;44.708;37.644;2023-03-20T15:44:37;9.54;77.11
75786;DHT22;64402;44.708;37.644;2023-03-20T15:49:38;9.53;77.64
75786;DHT22;64402;44.708;37.644;2023-03-20T15:52:17;9.51;78.11
75786;DHT22;64402;44.708;37.644;2023-03-20T15:54:47;9.48;78.33
75786;DHT22;64402;44.708;37.644;2023-03-20T15:57:20;9.45;78.12
75786;DHT22;64402;44.708;37.644;2023-03-20T15:59:50;9.48;78.56
75786;DHT22;64402;44.708;37.644;2023-03-20T16:02:17;9.45;78.88
75786;DHT22;64402;44.708;37.644;2023-03-20T16:04:49;9.41;78.50
75786;DHT22;64402;44.708;37.644;2023-03-20T16:07:22;9.42;78.95
75786;DHT22;64402;44.708;37.644;2023-03-20T16:09:51;9.45;78.43
75786;DHT22;64402;44.708;37.644;2023-03-20T16:12:18;9.45;78.26
75786;DHT22;64402;44.708;37.644;2023-03-20T16:14:46;9.46;78.43
75786;DHT22;64402;44.708;37.644;2023-03-20T16:17:13;9.46;78.60
75786;DHT22;64402;44.708;37.644;2023-03-20T16:19:41;9.48;78.41
75786;DHT22;64402;44.708;37.644;2023-03-20T16:22:26;9.46;77.65
75786;DHT22;64402;44.708;37.644;2023-03-20T16:24:55;9.26;78.23
75786;DHT22;64402;44.708;37.644;2023-03-20T16:27:31;9.08;79.66
75786;DHT22;64402;44.708;37.644;2023-03-20T16:29:57;9.04;79.78
75786;DHT22;64402;44.708;37.644;2023-03-20T16:32:37;9.00;80.99
75786;DHT22;64402;44.708;37.644;2023-03-20T16:35:10;9.09;80.20
75786;DHT22;64402;44.708;37.644;2023-03-20T16:37:47;9.11;80.43
75786;DHT22;64402;44.708;37.644;2023-03-20T16:40:33;9.05;80.85
75786;DHT22;64402;44.708;37.644;2023-03-20T16:45:43;9.07;79.90
75786;DHT22;64402;44.708;37.644;2023-03-20T16:50:38;9.07;80.19
75786;DHT22;64402;44.708;37.644;2023-03-20T16:53:14;9.10;79.91
75786;DHT22;64402;44.708;37.644;2023-03-20T16:55:44;9.08;79.64
75786;DHT22;64402;44.708;37.644;2023-03-20T16:58:28;9.08;79.43
75786;DHT22;64402;44.708;37.644;2023-03-20T17:01:03;9.08;79.42
75786;DHT22;64402;44.708;37.644;2023-03-20T17:03:53;9.11;79.34
75786;DHT22;64402;44.708;37.644;2023-03-20T17:08:58;9.14;79.75
75786;DHT22;64402;44.708;37.644;2023-03-20T17:11:30;9.16;79.25
75786;DHT22;64402;44.708;37.644;2023-03-20T17:13:58;9.18;78.92
75786;DHT22;64402;44.708;37.644;2023-03-20T17:16:24;9.22;78.93
75786;DHT22;64402;44.708;37.644;2023-03-20T17:19:12;9.24;78.04
75786;DHT22;64402;44.708;37.644;2023-03-20T17:21:39;9.27;78.12
75786;DHT22;64402;44.708;37.644;2023-03-20T17:24:06;9.33;78.14
75786;DHT22;64402;44.708;37.644;2023-03-20T17:26:33;9.37;77.59
75786;DHT22;64402;44.708;37.644;2023-03-20T17:28:59;9.39;77.65
75786;DHT22;64402;44.708;37.644;2023-03-20T17:31:25;9.40;77.70
75786;DHT22;64402;44.708;37.644;2023-03-20T17:33:52;9.44;77.94
75786;DHT22;64402;44.708;37.644;2023-03-20T17:36:30;9.52;78.30
75786;DHT22;64402;44.708;37.644;2023-03-20T17:38:58;9.63;78.18
75786;DHT22;64402;44.708;37.644;2023-03-20T17:41:25;9.69;78.11
75786;DHT22;64402;44.708;37.644;2023-03-20T17:43:52;9.71;77.71
75786;DHT22;64402;44.708;37.644;2023-03-20T17:46:21;9.75;77.63
75786;DHT22;64402;44.708;37.644;2023-03-20T17:48:49;9.80;78.07
75786;DHT22;64402;44.708;37.644;2023-03-20T17:51:16;9.83;78.32
75786;DHT22;64402;44.708;37.644;2023-03-20T17:53:42;9.84;77.93
75786;DHT22;64402;44.708;37.644;2023-03-20T17:56:13;9.78;76.53
75786;DHT22;64402;44.708;37.644;2023-03-20T17:58:40;9.52;77.20
75786;DHT22;64402;44.708;37.644;2023-03-20T18:01:10;9.42;77.77
75786;DHT22;64402;44.708;37.644;2023-03-20T18:03:37;9.38;77.52
75786;DHT22;64402;44.708;37.644;2023-03-20T18:06:04;9.24;77.81
75786;DHT22;64402;44.708;37.644;2023-03-20T18:08:33;9.15;78.47
75786;DHT22;64402;44.708;37.644;2023-03-20T18:10:59;9.11;78.81
75786;DHT22;64402;44.708;37.644;2023-03-20T18:13:26;9.17;78.31
75786;DHT22;64402;44.708;37.644;2023-03-20T18:15:55;9.18;77.55
75786;DHT22;64402;44.708;37.644;2023-03-20T18:18:22;9.14;78.15
75786;DHT22;64402;44.708;37.644;2023-03-20T18:20:49;9.10;77.91
75786;DHT22;64402;44.708;37.644;2023-03-20T18:23:15;9.11;78.14
75786;DHT22;64402;44.708;37.644;2023-03-20T18:25:42;9.10;78.43
75786;DHT22;64402;44.708;37.644;2023-03-20T18:28:12;9.09;77.77
75786;DHT22;64402;44.708;37.644;2023-03-20T18:30:43;9.08;77.57
75786;DHT22;64402;44.708;37.644;2023-03-20T18:33:09;9.03;77.71
75786;DHT22;64402;44.708;37.644;2023-03-20T18:35:35;8.97;78.07
75786;DHT22;64402;44.708;37.644;2023-03-20T18:38:02;8.93;77.94
75786;DHT22;64402;44.708;37.644;2023-03-20T18:40:33;8.93;78.08
75786;DHT22;64402;44.708;37.644;2023-03-20T18:43:00;8.86;78.30
75786;DHT22;64402;44.708;37.644;2023-03-20T18:45:29;8.85;78.19
75786;DHT22;64402;44.708;37.644;2023-03-20T18:47:56;8.95;78.31
75786;DHT22;64402;44.708;37.644;2023-03-20T18:50:32;9.04;77.81
75786;DHT22;64402;44.708;37.644;2023-03-20T18:53:01;9.08;78.36
75786;DHT22;64402;44.708;37.644;2023-03-20T18:55:29;9.20;78.26
75786;DHT22;64402;44.708;37.644;2023-03-20T18:57:56;9.31;79.08
75786;DHT22;64402;44.708;37.644;2023-03-20T19:00:27;9.41;78.40
75786;DHT22;64402;44.708;37.644;2023-03-20T19:02:55;9.50;78.08
75786;DHT22;64402;44.708;37.644;2023-03-20T19:05:24;9.49;77.62
75786;DHT22;64402;44.708;37.644;2023-03-20T19:07:51;9.48;77.71
75786;DHT22;64402;44.708;37.644;2023-03-20T19:10:29;9.49;79.38
75786;DHT22;64402;44.708;37.644;2023-03-20T19:12:56;9.47;79.01
75786;DHT22;64402;44.708;37.644;2023-03-20T19:15:25;9.46;79.95
75786;DHT22;64402;44.708;37.644;2023-03-20T19:17:52;9.51;79.69
75786;DHT22;64402;44.708;37.644;2023-03-20T19:20:31;9.52;79.46
75786;DHT22;64402;44.708;37.644;2023-03-20T19:23:02;9.56;79.69
75786;DHT22;64402;44.708;37.644;2023-03-20T19:25:29;9.55;79.53
75786;DHT22;64402;44.708;37.644;2023-03-20T19:27:56;9.60;79.97
75786;DHT22;64402;44.708;37.644;2023-03-20T19:30:30;9.63;81.10
75786;DHT22;64402;44.708;37.644;2023-03-20T19:32:56;9.62;81.00
75786;DHT22;64402;44.708;37.644;2023-03-20T19:35:23;9.62;81.86
75786;DHT22;64402;44.708;37.644;2023-03-20T19:37:50;9.61;81.99
75786;DHT22;64402;44.708;37.644;2023-03-20T19:42:56;9.56;82.38
75786;DHT22;64402;44.708;37.644;2023-03-20T19:45:24;9.55;81.12
75786;DHT22;64402;44.708;37.644;2023-03-20T19:47:50;9.48;81.54
75786;DHT22;64402;44.708;37.644;2023-03-20T19:50:33;9.48;81.39
75786;DHT22;64402;44.708;37.644;2023-03-20T19:53:09;9.50;82.07
75786;DHT22;64402;44.708;37.644;2023-03-20T19:55:36;9.54;81.43
75786;DHT22;64402;44.708;37.644;2023-03-20T19:58:03;9.55;80.02
75786;DHT22;64402;44.708;37.644;2023-03-20T20:00:32;9.54;80.32
75786;DHT22;64402;44.708;37.644;2023-03-20T20:02:59;9.56;80.81
75786;DHT22;64402;44.708;37.644;2023-03-20T20:05:26;9.62;80.70
75786;DHT22;64402;44.708;37.644;2023-03-20T20:07:53;9.63;81.60
75786;DHT22;64402;44.708;37.644;2023-03-20T20:10:22;9.66;81.04
75786;DHT22;64402;44.708;37.644;2023-03-20T20:12:51;9.68;80.49
75786;DHT22;64402;44.708;37.644;2023-03-20T20:15:20;9.69;80.88
75786;DHT22;64402;44.708;37.644;2023-03-20T20:17:47;9.68;81.21
75786;DHT22;64402;44.708;37.644;2023-03-20T20:20:16;9.72;81.00
75786;DHT22;64402;44.708;37.644;2023-03-20T20:22:43;9.69;81.82
75786;DHT22;64402;44.708;37.644;2023-03-20T20:25:10;9.71;82.75
75786;DHT22;64402;44.708;37.644;2023-03-20T20:27:37;9.72;82.78
75786;DHT22;64402;44.708;37.644;2023-03-20T20:30:06;9.76;82.83
75786;DHT22;64402;44.708;37.644;2023-03-20T20:32:35;9.75;83.25
75786;DHT22;64402;44.708;37.644;2023-03-20T20:35:01;9.77;83.13
75786;DHT22;64402;44.708;37.644;2023-03-20T20:37:29;9.79;83.29
75786;DHT22;64402;44.708;37.644;2023-03-20T20:39:55;9.80;83.47
75786;DHT22;64402;44.708;37.644;2023-03-20T20:42:22;9.81;83.62
75786;DHT22;64402;44.708;37.644;2023-03-20T20:44:51;9.78;83.86
75786;DHT22;64402;44.708;37.644;2023-03-20T20:47:17;9.77;84.14
75786;DHT22;64402;44.708;37.644;2023-03-20T20:49:47;9.81;83.76
75786;DHT22;64402;44.708;37.644;2023-03-20T20:52:14;9.80;83.62
75786;DHT22;64402;44.708;37.644;2023-03-20T20:54:40;9.79;83.65
75786;DHT22;64402;44.708;37.644;2023-03-20T20:57:08;9.82;83.68
75786;DHT22;64402;44.708;37.644;2023-03-20T20:59:36;9.81;83.64
75786;DHT22;64402;44.708;37.644;2023-03-20T21:02:04;9.80;83.89
75786;DHT22;64402;44.708;37.644;2023-03-20T21:04:42;9.76;84.10
75786;DHT22;64402;44.708;37.644;2023-03-20T21:07:12;9.72;83.90
75786;DHT22;64402;44.708;37.644;2023-03-20T21:09:39;9.67;84.26
75786;DHT22;64402;44.708;37.644;2023-03-20T21:12:19;9.67;84.29
75786;DHT22;64402;44.708;37.644;2023-03-20T21:14:45;9.67;84.52
75786;DHT22;64402;44.708;37.644;2023-03-20T21:17:12;9.67;84.55
75786;DHT22;64402;44.708;37.644;2023-03-20T21:19:39;9.72;84.58
75786;DHT22;64402;44.708;37.644;2023-03-20T21:22:12;9.72;84.33
75786;DHT22;64402;44.708;37.644;2023-03-20T21:24:43;9.74;84.35
75786;DHT22;64402;44.708;37.644;2023-03-20T21:27:13;9.71;84.45
75786;DHT22;64402;44.708;37.644;2023-03-20T21:29:40;9.69;84.71
75786;DHT22;64402;44.708;37.644;2023-03-20T21:32:08;9.71;84.70
75786;DHT22;64402;44.708;37.644;2023-03-20T21:34:38;9.69;84.28
75786;DHT22;64402;44.708;37.644;2023-03-20T21:37:06;9.69;84.57
75786;DHT22;64402;44.708;37.644;2023-03-20T21:39:34;9.72;84.70
75786;DHT22;64402;44.708;37.644;2023-03-20T21:42:01;9.70;84.44
75786;DHT22;64402;44.708;37.644;2023-03-20T21:44:28;9.68;85.09
75786;DHT22;64402;44.708;37.644;2023-03-20T21:46:55;9.67;85.24
75786;DHT22;64402;44.708;37.644;2023-03-20T21:49:22;9.66;85.29
75786;DHT22;64402;44.708;37.644;2023-03-20T21:51:48;9.69;84.96
75786;DHT22;64402;44.708;37.644;2023-03-20T21:54:14;9.68;85.17
75786;DHT22;64402;44.708;37.644;2023-03-20T21:56:41;9.70;85.09
75786;DHT22;64402;44.708;37.644;2023-03-20T21:59:07;9.70;85.20
75786;DHT22;64402;44.708;37.644;2023-03-20T22:01:33;9.74;84.84
75786;DHT22;64402;44.708;37.644;2023-03-20T22:04:00;9.74;85.13
75786;DHT22;64402;44.708;37.644;2023-03-20T22:06:26;9.74;85.05
75786;DHT22;64402;44.708;37.644;2023-03-20T22:08:52;9.71;85.36
75786;DHT22;64402;44.708;37.644;2023-03-20T22:11:18;9.69;85.36
75786;DHT22;64402;44.708;37.644;2023-03-20T22:13:44;9.70;85.45
75786;DHT22;64402;44.708;37.644;2023-03-20T22:16:12;9.71;85.36
75786;DHT22;64402;44.708;37.644;2023-03-20T22:18:41;9.69;85.53
75786;DHT22;64402;44.708;37.644;2023-03-20T22:21:07;9.72;85.46
75786;DHT22;64402;44.708;37.644;2023-03-20T22:23:33;9.78;85.30
75786;DHT22;64402;44.708;37.644;2023-03-20T22:26:02;9.79;85.22
75786;DHT22;64402;44.708;37.644;2023-03-20T22:28:29;9.77;85.46
75786;DHT22;64402;44.708;37.644;2023-03-20T22:30:56;9.80;85.51
75786;DHT22;64402;44.708;37.644;2023-03-20T22:33:23;9.80;85.35
75786;DHT22;64402;44.708;37.644;2023-03-20T22:35:50;9.78;85.64
75786;DHT22;64402;44.708;37.644;2023-03-20T22:38:18;9.81;85.32
75786;DHT22;64402;44.708;37.644;2023-03-20T22:40:45;9.84;85.05
75786;DHT22;64402;44.708;37.644;2023-03-20T22:43:11;9.86;85.04
75786;DHT22;64402;44.708;37.644;2023-03-20T22:45:38;9.82;85.21
75786;DHT22;64402;44.708;37.644;2023-03-20T22:48:09;9.78;85.11
75786;DHT22;64402;44.708;37.644;2023-03-20T22:50:35;9.65;85.87
75786;DHT22;64402;44.708;37.644;2023-03-20T22:53:01;9.68;86.14
75786;DHT22;64402;44.708;37.644;2023-03-20T22:55:27;9.69;86.07
75786;DHT22;64402;44.708;37.644;2023-03-20T22:57:53;9.74;85.97
75786;DHT22;64402;44.708;37.644;2023-03-20T23:00:21;9.74;85.77
75786;DHT22;64402;44.708;37.644;2023-03-20T23:02:48;9.75;85.86
75786;DHT22;64402;44.708;37.644;2023-03-20T23:05:15;9.80;85.67
75786;DHT22;64402;44.708;37.644;2023-03-20T23:07:41;9.75;86.24
75786;DHT22;64402;44.708;37.644;2023-03-20T23:10:08;9.75;86.19
75786;DHT22;64402;44.708;37.644;2023-03-20T23:12:36;9.74;86.33
75786;DHT22;64402;44.708;37.644;2023-03-20T23:15:04;9.69;86.72
75786;DHT22;64402;44.708;37.644;2023-03-20T23:17:31;9.74;86.45
75786;DHT22;64402;44.708;37.644;2023-03-20T23:19:57;9.70;86.35
75786;DHT22;64402;44.708;37.644;2023-03-20T23:22:23;9.60;87.90
75786;DHT22;64402;44.708;37.644;2023-03-20T23:24:50;9.63;88.83
75786;DHT22;64402;44.708;37.644;2023-03-20T23:27:18;9.76;89.97
75786;DHT22;64402;44.708;37.644;2023-03-20T23:29:44;9.83;90.63
75786;DHT22;64402;44.708;37.644;2023-03-20T23:32:11;9.86;90.28
75786;DHT22;64402;44.708;37.644;2023-03-20T23:34:37;9.88;90.25
75786;DHT22;64402;44.708;37.644;2023-03-20T23:37:03;9.90;90.49
75786;DHT22;64402;44.708;37.644;2023-03-20T23:39:29;9.91;90.28
75786;DHT22;64402;44.708;37.644;2023-03-20T23:41:56;9.92;90.09
75786;DHT22;64402;44.708;37.644;2023-03-20T23:44:22;9.92;89.68
75786;DHT22;64402;44.708;37.644;2023-03-20T23:46:48;9.93;89.48
75786;DHT22;64402;44.708;37.644;2023-03-20T23:49:15;9.91;89.42
75786;DHT22;64402;44.708;37.644;2023-03-20T23:51:41;9.93;89.75
75786;DHT22;64402;44.708;37.644;2023-03-20T23:54:07;9.91;89.68
75786;DHT22;64402;44.708;37.644;2023-03-20T23:56:34;9.91;89.68
75786;DHT22;64402;44.708;37.644;2023-03-20T23:59:00;9.92;89.67
